Time;durP1;ratioP1;P1;durP2;ratioP2;P2;SDS_P1;SDS_P2;PMS_P1;PMS_P2;Temp;Humidity;BMP_temperature;BMP_pressure;BME280_temperature;BME280_humidity;BME280_pressure;Samples;Min_cycle;Max_cycle;Signal;HPM_P1;HPM_P2
2023/12/18 00:01:10;;;;;;;438.20;162.47;;;;;;;;;;4986121;28;20327;-55
2023/12/18 00:03:36;;;;;;;443.83;168.63;;;;;;;;;;4991116;28;20193;-55
2023/12/18 00:06:03;;;;;;;440.90;166.63;;;;;;;;;;4992988;28;20185;-55
2023/12/18 00:08:29;;;;;;;401.30;150.37;;;;;;;;;;4994553;28;20307;-55
2023/12/18 00:10:55;;;;;;;432.70;162.53;;;;;;;;;;4985282;28;20719;-55
2023/12/18 00:13:21;;;;;;;427.37;158.53;;;;;;;;;;4990252;28;20423;-55
2023/12/18 00:15:47;;;;;;;466.67;179.97;;;;;;;;;;4988890;28;20220;-55
2023/12/18 00:18:13;;;;;;;423.20;157.97;;;;;;;;;;4993339;28;20225;-55
2023/12/18 00:20:39;;;;;;;433.27;165.60;;;;;;;;;;4992471;28;20702;-55
2023/12/18 00:23:05;;;;;;;452.73;172.13;;;;;;;;;;4989731;28;20350;-55
2023/12/18 00:25:31;;;;;;;416.73;157.63;;;;;;;;;;4991305;28;20643;-55
2023/12/18 00:27:57;;;;;;;451.43;165.20;;;;;;;;;;4992176;28;20212;-55
2023/12/18 00:30:23;;;;;;;410.97;153.93;;;;;;;;;;4986025;28;20778;-55
2023/12/18 00:32:49;;;;;;;541.37;219.27;;;;;;;;;;4986242;28;20193;-55
2023/12/18 00:35:15;;;;;;;445.40;169.50;;;;;;;;;;4987274;28;20796;-55
2023/12/18 00:37:41;;;;;;;466.30;174.67;;;;;;;;;;4987828;28;20232;-55
2023/12/18 00:40:07;;;;;;;418.10;158.63;;;;;;;;;;4989739;28;20225;-55
2023/12/18 00:42:33;;;;;;;466.33;176.90;;;;;;;;;;4991041;28;20193;-55
2023/12/18 00:44:59;;;;;;;432.10;162.40;;;;;;;;;;4987500;28;20285;-55
2023/12/18 00:47:25;;;;;;;414.73;156.33;;;;;;;;;;4988892;28;20212;-55
2023/12/18 00:49:51;;;;;;;444.63;172.50;;;;;;;;;;4990848;28;20278;-55
2023/12/18 00:52:17;;;;;;;482.47;187.97;;;;;;;;;;4984706;28;20274;-55
2023/12/18 00:54:43;;;;;;;409.70;155.87;;;;;;;;;;4989621;28;20304;-55
2023/12/18 00:57:09;;;;;;;417.13;156.33;;;;;;;;;;4991658;28;20228;-55
2023/12/18 00:59:35;;;;;;;484.17;186.63;;;;;;;;;;4990477;28;20282;-55
2023/12/18 01:02:01;;;;;;;432.13;164.20;;;;;;;;;;4983976;28;20217;-55
2023/12/18 01:04:27;;;;;;;421.83;158.67;;;;;;;;;;4988356;28;20217;-55
2023/12/18 01:06:52;;;;;;;450.50;175.80;;;;;;;;;;4989346;28;21810;-55
2023/12/18 01:09:18;;;;;;;457.73;176.00;;;;;;;;;;4991804;28;20225;-55
2023/12/18 01:11:44;;;;;;;436.63;165.80;;;;;;;;;;4988145;28;20353;-55
2023/12/18 01:14:11;;;;;;;434.97;166.50;;;;;;;;;;4989579;28;20208;-55
2023/12/18 01:16:37;;;;;;;425.30;159.90;;;;;;;;;;4992598;28;20243;-60
2023/12/18 01:19:03;;;;;;;438.73;169.83;;;;;;;;;;4993265;28;20221;-55
2023/12/18 01:21:28;;;;;;;427.40;164.37;;;;;;;;;;4987313;28;20241;-55
2023/12/18 01:23:54;;;;;;;409.57;155.87;;;;;;;;;;4992019;28;20354;-55
2023/12/18 01:26:20;;;;;;;409.93;152.97;;;;;;;;;;4990082;28;20319;-55
2023/12/18 01:28:46;;;;;;;434.97;168.50;;;;;;;;;;4996950;28;20220;-55
2023/12/18 01:31:22;;;;;;;405.83;151.93;;;;;;;;;;4992089;28;20255;-55
2023/12/18 01:33:48;;;;;;;515.67;200.80;;;;;;;;;;4986603;28;20223;-55
2023/12/18 01:36:14;;;;;;;454.43;171.53;;;;;;;;;;4995056;28;20178;-55
2023/12/18 01:38:40;;;;;;;417.67;155.97;;;;;;;;;;4988249;28;20261;-55
2023/12/18 01:41:06;;;;;;;446.10;171.90;;;;;;;;;;4987510;28;20236;-55
2023/12/18 01:43:32;;;;;;;407.90;154.07;;;;;;;;;;4993141;28;20212;-55
2023/12/18 01:46:00;;;;;;;412.70;157.87;;;;;;;;;;4984027;28;20248;-55
2023/12/18 01:48:26;;;;;;;466.73;179.40;;;;;;;;;;4987279;28;20181;-55
2023/12/18 01:50:57;;;;;;;428.10;160.80;;;;;;;;;;4992483;28;20212;-55
2023/12/18 01:53:27;;;;;;;427.17;159.60;;;;;;;;;;4992693;28;20204;-55
2023/12/18 01:55:53;;;;;;;457.03;174.23;;;;;;;;;;4988920;28;20291;-55
2023/12/18 01:58:20;;;;;;;420.80;161.47;;;;;;;;;;4990364;28;20232;-55
2023/12/18 02:00:46;;;;;;;480.33;188.20;;;;;;;;;;4982754;28;20308;-55
2023/12/18 02:03:12;;;;;;;435.27;162.37;;;;;;;;;;4990642;28;20190;-55
2023/12/18 02:05:40;;;;;;;450.73;173.27;;;;;;;;;;4991865;28;20293;-55
2023/12/18 02:08:07;;;;;;;455.00;174.13;;;;;;;;;;4991109;28;20224;-55
2023/12/18 02:10:33;;;;;;;412.20;154.93;;;;;;;;;;4986159;28;20248;-55
2023/12/18 02:12:59;;;;;;;451.33;173.10;;;;;;;;;;4988574;28;20329;-55
2023/12/18 02:15:25;;;;;;;449.03;172.20;;;;;;;;;;4986457;28;20543;-55
2023/12/18 02:17:51;;;;;;;465.77;181.87;;;;;;;;;;4987579;28;20659;-55
2023/12/18 02:20:17;;;;;;;415.57;160.07;;;;;;;;;;4991431;28;20323;-55
2023/12/18 02:22:48;;;;;;;438.43;168.03;;;;;;;;;;4999545;28;20218;-55
2023/12/18 02:25:18;;;;;;;459.00;178.20;;;;;;;;;;4988385;28;20621;-55
2023/12/18 02:27:50;;;;;;;403.17;154.07;;;;;;;;;;4990169;28;20216;-55
2023/12/18 02:30:17;;;;;;;460.60;177.13;;;;;;;;;;4987397;28;20241;-55
2023/12/18 02:32:43;;;;;;;465.40;179.70;;;;;;;;;;4987298;28;20622;-55
2023/12/18 02:35:09;;;;;;;451.63;175.33;;;;;;;;;;4985283;28;20213;-55
2023/12/18 02:37:35;;;;;;;419.00;159.67;;;;;;;;;;4991069;28;20541;-56
2023/12/18 02:40:02;;;;;;;458.50;176.53;;;;;;;;;;4989032;28;20224;-55
2023/12/18 02:42:28;;;;;;;442.70;174.47;;;;;;;;;;4986884;28;20189;-55
2023/12/18 02:44:54;;;;;;;445.37;172.50;;;;;;;;;;4991406;28;20572;-55
2023/12/18 02:47:20;;;;;;;392.87;147.17;;;;;;;;;;4991777;28;20307;-55
2023/12/18 02:49:46;;;;;;;456.97;176.70;;;;;;;;;;4986543;28;21620;-55
2023/12/18 02:52:12;;;;;;;464.77;176.17;;;;;;;;;;4992608;28;20294;-55
2023/12/18 02:54:38;;;;;;;424.73;161.97;;;;;;;;;;4991346;28;20193;-55
2023/12/18 02:57:04;;;;;;;432.13;167.00;;;;;;;;;;4989476;28;20213;-55
2023/12/18 02:59:30;;;;;;;422.30;161.33;;;;;;;;;;4991695;28;20322;-55
2023/12/18 03:01:56;;;;;;;422.77;162.27;;;;;;;;;;4996819;28;20758;-55
2023/12/18 03:04:22;;;;;;;391.47;147.40;;;;;;;;;;4991618;28;20687;-55
2023/12/18 03:06:48;;;;;;;411.93;157.37;;;;;;;;;;4996624;28;20295;-55
2023/12/18 03:09:14;;;;;;;438.40;167.23;;;;;;;;;;4995363;28;20209;-55
2023/12/18 03:11:41;;;;;;;452.63;170.50;;;;;;;;;;4991188;28;20229;-55
2023/12/18 03:14:07;;;;;;;440.60;168.00;;;;;;;;;;4997242;28;20818;-55
2023/12/18 03:16:33;;;;;;;405.07;152.83;;;;;;;;;;4993161;28;20279;-55
2023/12/18 03:18:59;;;;;;;411.20;157.43;;;;;;;;;;4997827;28;20256;-55
2023/12/18 03:21:25;;;;;;;432.57;167.23;;;;;;;;;;4995736;28;20294;-55
2023/12/18 03:23:51;;;;;;;430.40;167.53;;;;;;;;;;4988030;28;20580;-55
2023/12/18 03:26:17;;;;;;;421.57;160.87;;;;;;;;;;4991221;28;21031;-56
2023/12/18 03:28:43;;;;;;;427.83;161.63;;;;;;;;;;4993205;28;20312;-56
2023/12/18 03:31:14;;;;;;;446.13;170.63;;;;;;;;;;4990990;28;20560;-55
2023/12/18 03:33:40;;;;;;;447.70;169.03;;;;;;;;;;4995917;28;20193;-55
2023/12/18 03:36:06;;;;;;;435.33;170.80;;;;;;;;;;4999533;28;20318;-55
2023/12/18 03:38:32;;;;;;;415.03;159.60;;;;;;;;;;4999135;28;20267;-56
2023/12/18 03:40:58;;;;;;;435.20;167.87;;;;;;;;;;4990021;28;20656;-55
2023/12/18 03:43:24;;;;;;;403.77;152.63;;;;;;;;;;4997553;28;20221;-56
2023/12/18 03:45:50;;;;;;;427.23;162.23;;;;;;;;;;4993930;28;20212;-56
2023/12/18 03:48:18;;;;;;;443.47;169.70;;;;;;;;;;5001870;28;20188;-55
2023/12/18 03:50:44;;;;;;;430.40;161.93;;;;;;;;;;4991029;28;20560;-55
2023/12/18 03:53:10;;;;;;;400.80;149.70;;;;;;;;;;4991248;28;20232;-56
2023/12/18 03:55:36;;;;;;;428.57;164.73;;;;;;;;;;4989091;28;21085;-56
2023/12/18 03:58:02;;;;;;;426.57;164.03;;;;;;;;;;4990221;28;20685;-56
2023/12/18 04:00:28;;;;;;;416.97;160.17;;;;;;;;;;4991742;28;20775;-56
2023/12/18 04:02:55;;;;;;;454.40;174.50;;;;;;;;;;4993852;28;20242;-56
2023/12/18 04:05:22;;;;;;;433.00;164.73;;;;;;;;;;4994321;28;20228;-56
2023/12/18 04:07:48;;;;;;;431.10;165.03;;;;;;;;;;4995169;28;20353;-56
2023/12/18 04:10:14;;;;;;;420.70;157.50;;;;;;;;;;4994843;28;20323;-55
2023/12/18 04:12:40;;;;;;;415.63;161.93;;;;;;;;;;4990842;28;20293;-55
2023/12/18 04:15:06;;;;;;;443.33;170.17;;;;;;;;;;4994318;28;20664;-55
2023/12/18 04:17:32;;;;;;;463.07;179.73;;;;;;;;;;4994540;28;20212;-55
2023/12/18 04:19:58;;;;;;;448.23;175.03;;;;;;;;;;4990170;28;22004;-55
2023/12/18 04:22:24;;;;;;;462.13;185.50;;;;;;;;;;4988704;28;20327;-53
2023/12/18 04:24:50;;;;;;;464.77;182.40;;;;;;;;;;4987478;28;20224;-53
2023/12/18 04:27:16;;;;;;;433.00;165.97;;;;;;;;;;4991047;28;20200;-53
2023/12/18 04:29:42;;;;;;;432.47;163.10;;;;;;;;;;4988530;28;20359;-53
2023/12/18 04:32:08;;;;;;;439.27;167.37;;;;;;;;;;4993002;28;20209;-53
2023/12/18 04:34:34;;;;;;;462.43;182.73;;;;;;;;;;4985148;28;20227;-53
2023/12/18 04:37:00;;;;;;;429.93;167.93;;;;;;;;;;4993331;28;20224;-53
2023/12/18 04:39:26;;;;;;;466.93;188.90;;;;;;;;;;4991704;28;20575;-53
2023/12/18 04:41:52;;;;;;;430.67;163.93;;;;;;;;;;4991773;28;20209;-52
2023/12/18 04:44:18;;;;;;;460.73;176.00;;;;;;;;;;4988643;28;20574;-53
2023/12/18 04:46:44;;;;;;;436.77;165.57;;;;;;;;;;4995265;28;20790;-53
2023/12/18 04:49:10;;;;;;;433.97;165.13;;;;;;;;;;4990772;28;20262;-53
2023/12/18 04:51:36;;;;;;;409.77;157.17;;;;;;;;;;4985670;28;20668;-53
2023/12/18 04:54:02;;;;;;;412.60;159.17;;;;;;;;;;4993544;28;20192;-53
2023/12/18 04:56:28;;;;;;;446.47;173.57;;;;;;;;;;4987178;28;20304;-52
2023/12/18 04:58:54;;;;;;;437.37;167.50;;;;;;;;;;4991874;28;20228;-53
2023/12/18 05:01:20;;;;;;;410.90;154.93;;;;;;;;;;4992044;28;20216;-53
2023/12/18 05:03:46;;;;;;;437.33;167.73;;;;;;;;;;4986701;28;20291;-53
2023/12/18 05:06:21;;;;;;;498.10;202.53;;;;;;;;;;4992105;28;20287;-53
2023/12/18 05:08:47;;;;;;;425.30;160.67;;;;;;;;;;4991163;28;20295;-52
2023/12/18 05:11:13;;;;;;;443.43;168.93;;;;;;;;;;4989906;28;20359;-53
2023/12/18 05:13:39;;;;;;;481.53;185.77;;;;;;;;;;4980070;28;20221;-53
2023/12/18 05:16:06;;;;;;;433.93;167.37;;;;;;;;;;4985070;28;20237;-52
2023/12/18 05:18:32;;;;;;;420.13;160.80;;;;;;;;;;4993219;28;20592;-53
2023/12/18 05:20:59;;;;;;;425.10;162.47;;;;;;;;;;4986838;28;20251;-53
2023/12/18 05:23:25;;;;;;;412.20;156.10;;;;;;;;;;4993145;28;20452;-52
2023/12/18 05:25:51;;;;;;;478.33;185.30;;;;;;;;;;4986219;28;20985;-53
2023/12/18 05:28:17;;;;;;;437.70;167.63;;;;;;;;;;4988493;28;20217;-53
2023/12/18 05:30:43;;;;;;;440.67;168.73;;;;;;;;;;4988248;28;20233;-52
2023/12/18 05:33:09;;;;;;;435.03;167.83;;;;;;;;;;4984008;28;20192;-53
2023/12/18 05:35:34;;;;;;;428.27;162.90;;;;;;;;;;4986856;28;20236;-53
2023/12/18 05:38:00;;;;;;;415.80;157.33;;;;;;;;;;4990780;28;20227;-53
2023/12/18 05:40:26;;;;;;;466.53;182.57;;;;;;;;;;4984751;28;20678;-54
2023/12/18 05:42:52;;;;;;;427.63;160.43;;;;;;;;;;4987525;28;20236;-53
2023/12/18 05:45:18;;;;;;;433.80;167.17;;;;;;;;;;4986604;28;20188;-52
2023/12/18 05:47:44;;;;;;;433.50;165.90;;;;;;;;;;4994691;28;20213;-52
2023/12/18 05:50:11;;;;;;;484.97;191.63;;;;;;;;;;4985282;28;20259;-53
2023/12/18 05:52:37;;;;;;;455.60;178.10;;;;;;;;;;4990456;28;20212;-53
2023/12/18 05:55:03;;;;;;;438.50;170.57;;;;;;;;;;4986765;28;20220;-53
2023/12/18 05:57:29;;;;;;;424.57;162.07;;;;;;;;;;4993334;28;20192;-53
2023/12/18 05:59:55;;;;;;;436.37;169.33;;;;;;;;;;4984384;28;20861;-53
2023/12/18 06:02:21;;;;;;;439.37;170.47;;;;;;;;;;4989331;28;20219;-52
2023/12/18 06:04:47;;;;;;;448.70;172.57;;;;;;;;;;4982850;28;20255;-53
2023/12/18 06:07:13;;;;;;;471.63;186.97;;;;;;;;;;4986687;28;20750;-53
2023/12/18 06:09:40;;;;;;;444.80;170.03;;;;;;;;;;4989729;28;20231;-53
2023/12/18 06:12:06;;;;;;;441.43;168.13;;;;;;;;;;4991062;28;20303;-53
2023/12/18 06:14:32;;;;;;;454.10;178.30;;;;;;;;;;4985493;28;20212;-53
2023/12/18 06:16:58;;;;;;;437.73;170.30;;;;;;;;;;4986140;28;20212;-53
2023/12/18 06:19:24;;;;;;;414.33;158.93;;;;;;;;;;4989743;28;20233;-53
2023/12/18 06:21:50;;;;;;;450.70;179.77;;;;;;;;;;4987745;28;20259;-53
2023/12/18 06:24:16;;;;;;;525.47;215.17;;;;;;;;;;4983974;28;20240;-53
2023/12/18 06:26:41;;;;;;;468.17;183.60;;;;;;;;;;4979566;28;20599;-53
2023/12/18 06:29:07;;;;;;;454.70;178.87;;;;;;;;;;4984758;28;20359;-53
2023/12/18 06:31:34;;;;;;;472.53;188.73;;;;;;;;;;4987901;28;20412;-53
2023/12/18 06:34:00;;;;;;;439.03;168.57;;;;;;;;;;4988182;28;20362;-52
2023/12/18 06:36:25;;;;;;;397.43;148.47;;;;;;;;;;4988125;28;20197;-53
2023/12/18 06:38:51;;;;;;;428.03;160.60;;;;;;;;;;4985453;28;20209;-52
2023/12/18 06:41:17;;;;;;;452.57;174.80;;;;;;;;;;4984120;28;20493;-52
2023/12/18 06:43:45;;;;;;;437.93;168.43;;;;;;;;;;4993117;28;20216;-52
2023/12/18 06:46:11;;;;;;;457.00;173.57;;;;;;;;;;4987787;28;20590;-52
2023/12/18 06:48:39;;;;;;;436.30;173.17;;;;;;;;;;4989208;28;20184;-53
2023/12/18 06:51:05;;;;;;;442.53;167.83;;;;;;;;;;4986855;28;20204;-52
2023/12/18 06:53:31;;;;;;;462.27;178.97;;;;;;;;;;4989208;28;20224;-53
2023/12/18 06:55:57;;;;;;;492.60;190.80;;;;;;;;;;4977503;28;20217;-53
2023/12/18 06:58:23;;;;;;;476.33;189.33;;;;;;;;;;4981863;28;20329;-52
2023/12/18 07:00:49;;;;;;;401.50;151.23;;;;;;;;;;4984418;28;20234;-52
2023/12/18 07:03:15;;;;;;;419.53;159.53;;;;;;;;;;4992141;28;20219;-52
2023/12/18 07:05:42;;;;;;;402.37;152.77;;;;;;;;;;4997696;28;20283;-53
2023/12/18 07:08:08;;;;;;;394.77;150.17;;;;;;;;;;4989603;28;20220;-52
2023/12/18 07:10:34;;;;;;;481.17;190.13;;;;;;;;;;4982905;28;20220;-52
2023/12/18 07:12:59;;;;;;;417.03;156.50;;;;;;;;;;4992067;28;20600;-52
2023/12/18 07:15:25;;;;;;;421.20;156.57;;;;;;;;;;5001382;28;20259;-53
2023/12/18 07:17:52;;;;;;;428.97;161.93;;;;;;;;;;4998452;28;20833;-53
2023/12/18 07:20:18;;;;;;;446.10;174.07;;;;;;;;;;4958576;28;20726;-53
2023/12/18 07:22:44;;;;;;;408.87;155.97;;;;;;;;;;4991628;28;20233;-52
2023/12/18 07:25:10;;;;;;;488.40;194.90;;;;;;;;;;4990274;28;20708;-52
2023/12/18 07:27:36;;;;;;;444.30;171.27;;;;;;;;;;4971701;28;20200;-51
2023/12/18 07:30:05;;;;;;;451.57;171.90;;;;;;;;;;4984382;28;21141;-51
2023/12/18 07:32:31;;;;;;;412.60;159.93;;;;;;;;;;4994574;28;20297;-52
2023/12/18 07:34:59;;;;;;;436.20;169.73;;;;;;;;;;4988121;28;20282;-51
2023/12/18 07:37:26;;;;;;;408.70;158.57;;;;;;;;;;4992859;28;20251;-51
2023/12/18 07:39:52;;;;;;;446.57;173.70;;;;;;;;;;4977997;28;21091;-51
2023/12/18 07:42:18;;;;;;;430.40;174.43;;;;;;;;;;4985351;28;20197;-52
2023/12/18 07:44:44;;;;;;;454.90;177.83;;;;;;;;;;4987418;28;20228;-52
2023/12/18 07:47:10;;;;;;;409.60;158.30;;;;;;;;;;4990017;28;20223;-52
2023/12/18 07:49:36;;;;;;;462.60;183.80;;;;;;;;;;4986655;28;20687;-51
2023/12/18 07:52:02;;;;;;;452.63;175.27;;;;;;;;;;4991346;28;20215;-51
2023/12/18 07:54:28;;;;;;;510.20;208.37;;;;;;;;;;4985925;28;20657;-52
2023/12/18 07:56:54;;;;;;;445.00;175.40;;;;;;;;;;4988374;28;20208;-52
2023/12/18 07:59:20;;;;;;;426.87;163.47;;;;;;;;;;4989120;28;20239;-52
2023/12/18 08:01:46;;;;;;;446.83;169.80;;;;;;;;;;4987479;28;20221;-52
2023/12/18 08:04:12;;;;;;;422.63;157.50;;;;;;;;;;4987362;28;20228;-52
2023/12/18 08:06:38;;;;;;;454.93;175.87;;;;;;;;;;4993009;28;20517;-52
2023/12/18 08:09:04;;;;;;;441.57;168.57;;;;;;;;;;4989962;28;20197;-51
2023/12/18 08:11:30;;;;;;;501.73;202.50;;;;;;;;;;4980933;28;20225;-53
2023/12/18 08:13:56;;;;;;;463.67;179.47;;;;;;;;;;4978986;28;20223;-52
2023/12/18 08:16:25;;;;;;;440.33;171.93;;;;;;;;;;4972882;28;20687;-52
2023/12/18 08:18:51;;;;;;;430.87;163.10;;;;;;;;;;4984841;28;20880;-51
2023/12/18 08:21:17;;;;;;;429.00;162.53;;;;;;;;;;4977348;28;20215;-51
2023/12/18 08:23:44;;;;;;;451.80;175.27;;;;;;;;;;4988547;28;20303;-51
2023/12/18 08:26:10;;;;;;;482.70;190.23;;;;;;;;;;4971047;28;20263;-51
2023/12/18 08:28:37;;;;;;;455.03;173.93;;;;;;;;;;4977712;28;20221;-51
2023/12/18 08:31:04;;;;;;;419.50;157.60;;;;;;;;;;4987795;28;20488;-50
2023/12/18 08:33:30;;;;;;;459.10;187.50;;;;;;;;;;4986875;28;20263;-51
2023/12/18 08:35:56;;;;;;;393.57;147.83;;;;;;;;;;4993584;28;20783;-52
2023/12/18 08:38:21;;;;;;;420.47;162.83;;;;;;;;;;4986859;28;20634;-52
2023/12/18 08:40:47;;;;;;;413.10;156.63;;;;;;;;;;4991043;28;20271;-52
2023/12/18 08:43:13;;;;;;;409.13;152.60;;;;;;;;;;4988698;28;20346;-51
2023/12/18 08:45:39;;;;;;;426.90;165.80;;;;;;;;;;4994352;28;20275;-52
2023/12/18 08:48:05;;;;;;;460.30;179.40;;;;;;;;;;4989633;28;20189;-52
2023/12/18 08:50:31;;;;;;;457.83;179.30;;;;;;;;;;4982557;28;20220;-52
2023/12/18 08:52:57;;;;;;;398.27;150.13;;;;;;;;;;4983631;28;20263;-52
2023/12/18 08:55:23;;;;;;;447.93;175.67;;;;;;;;;;4991048;28;20541;-52
2023/12/18 08:57:49;;;;;;;455.77;179.33;;;;;;;;;;4987048;28;20282;-52
2023/12/18 09:00:15;;;;;;;415.20;156.27;;;;;;;;;;4988249;28;20888;-52
2023/12/18 09:02:41;;;;;;;414.63;157.63;;;;;;;;;;4990904;28;20252;-52
2023/12/18 09:05:07;;;;;;;407.77;168.27;;;;;;;;;;4992065;28;20240;-52
2023/12/18 09:07:33;;;;;;;437.70;165.80;;;;;;;;;;4994747;28;20486;-52
2023/12/18 09:09:59;;;;;;;495.93;191.27;;;;;;;;;;4968877;28;22429;-52
2023/12/18 09:12:25;;;;;;;534.17;191.37;;;;;;;;;;4982766;28;20656;-52
2023/12/18 09:14:51;;;;;;;456.87;163.47;;;;;;;;;;4983534;28;20193;-52
2023/12/18 09:17:17;;;;;;;479.57;172.07;;;;;;;;;;4987885;28;20316;-52
2023/12/18 09:19:43;;;;;;;446.23;162.47;;;;;;;;;;4982043;28;20670;-51
2023/12/18 09:22:09;;;;;;;597.50;248.10;;;;;;;;;;4981014;28;20700;-51
2023/12/18 09:24:35;;;;;;;473.57;171.87;;;;;;;;;;4979798;28;20551;-52
2023/12/18 09:27:01;;;;;;;461.27;169.10;;;;;;;;;;4979572;28;20185;-52
2023/12/18 09:29:27;;;;;;;499.93;183.90;;;;;;;;;;4975803;28;21967;-51
2023/12/18 09:31:53;;;;;;;449.47;164.80;;;;;;;;;;4981127;28;20230;-51
2023/12/18 09:34:19;;;;;;;456.93;168.80;;;;;;;;;;4986749;28;20294;-51
2023/12/18 09:36:45;;;;;;;468.13;172.67;;;;;;;;;;4980039;28;20287;-52
2023/12/18 09:39:11;;;;;;;471.07;177.60;;;;;;;;;;4980663;28;20997;-51
2023/12/18 09:41:37;;;;;;;500.83;187.93;;;;;;;;;;4977017;28;20369;-51
2023/12/18 09:44:03;;;;;;;478.33;180.30;;;;;;;;;;4983314;28;20718;-52
2023/12/18 09:46:29;;;;;;;463.13;169.97;;;;;;;;;;4984237;28;20221;-52
2023/12/18 09:48:55;;;;;;;435.10;161.70;;;;;;;;;;4983666;28;20703;-51
2023/12/18 09:51:22;;;;;;;425.87;152.17;;;;;;;;;;4984437;28;20534;-51
2023/12/18 09:53:49;;;;;;;468.10;175.40;;;;;;;;;;4983817;28;20239;-52
2023/12/18 09:56:15;;;;;;;508.80;194.40;;;;;;;;;;4978883;28;20274;-52
2023/12/18 09:58:42;;;;;;;490.87;183.47;;;;;;;;;;4978537;28;20627;-52
2023/12/18 10:01:08;;;;;;;461.27;170.43;;;;;;;;;;4982799;28;20221;-52
2023/12/18 10:03:34;;;;;;;445.97;167.10;;;;;;;;;;4981076;28;20587;-52
2023/12/18 10:06:00;;;;;;;464.03;173.13;;;;;;;;;;4979623;28;20192;-52
2023/12/18 10:08:26;;;;;;;454.33;171.37;;;;;;;;;;4984640;28;20345;-52
2023/12/18 10:10:53;;;;;;;456.27;171.30;;;;;;;;;;4980989;28;20835;-52
2023/12/18 10:16:23;;;;;;;502.10;190.40;;;;;;;;;;4993034;28;20271;-54
2023/12/18 10:18:49;;;;;;;461.23;177.63;;;;;;;;;;4981730;28;20218;-53
2023/12/18 10:21:22;;;;;;;425.20;158.00;;;;;;;;;;4987599;28;20413;-52
2023/12/18 10:23:48;;;;;;;442.13;163.57;;;;;;;;;;4988793;28;20642;-55
2023/12/18 10:26:14;;;;;;;488.03;185.93;;;;;;;;;;4985746;28;20963;-55
2023/12/18 10:28:40;;;;;;;504.40;196.90;;;;;;;;;;4980756;28;20299;-55
2023/12/18 10:31:08;;;;;;;427.00;157.53;;;;;;;;;;4987824;28;20312;-55
2023/12/18 10:33:35;;;;;;;447.67;169.83;;;;;;;;;;4989531;28;20269;-56
2023/12/18 10:36:01;;;;;;;427.07;158.10;;;;;;;;;;4988131;28;20182;-55
2023/12/18 10:38:30;;;;;;;426.97;155.57;;;;;;;;;;4992858;28;20213;-55
2023/12/18 10:40:59;;;;;;;463.87;175.33;;;;;;;;;;4988914;28;20252;-56
2023/12/18 10:43:25;;;;;;;466.07;182.13;;;;;;;;;;4989559;28;20225;-55
2023/12/18 10:45:52;;;;;;;445.47;171.07;;;;;;;;;;4984242;28;20340;-55
2023/12/18 10:48:19;;;;;;;432.77;163.70;;;;;;;;;;4981427;28;20288;-55
2023/12/18 10:50:45;;;;;;;506.17;198.40;;;;;;;;;;4988220;28;20299;-55
2023/12/18 10:53:13;;;;;;;440.47;164.17;;;;;;;;;;4997157;28;20252;-55
2023/12/18 10:55:40;;;;;;;482.20;188.80;;;;;;;;;;4978115;28;20223;-56
2023/12/18 10:58:08;;;;;;;457.00;174.63;;;;;;;;;;4978893;28;20247;-56
2023/12/18 11:00:35;;;;;;;495.23;192.73;;;;;;;;;;4986764;28;20217;-56
2023/12/18 11:03:01;;;;;;;436.67;164.70;;;;;;;;;;4982536;28;20182;-56
2023/12/18 11:05:29;;;;;;;491.70;189.33;;;;;;;;;;4984637;28;20631;-56
2023/12/18 11:07:57;;;;;;;446.93;168.83;;;;;;;;;;4987594;28;20679;-57
2023/12/18 11:10:23;;;;;;;455.30;171.80;;;;;;;;;;4988873;28;20217;-56
2023/12/18 11:12:52;;;;;;;450.03;170.40;;;;;;;;;;4991762;28;20221;-56
2023/12/18 11:15:30;;;;;;;438.87;167.33;;;;;;;;;;4992688;28;20189;-56
2023/12/18 11:18:03;;;;;;;517.63;204.87;;;;;;;;;;4995622;28;20212;-56
2023/12/18 11:20:33;;;;;;;424.50;159.90;;;;;;;;;;4989428;28;20669;-57
2023/12/18 11:23:01;;;;;;;454.53;174.17;;;;;;;;;;4987151;28;20225;-56
2023/12/18 11:25:31;;;;;;;457.10;174.43;;;;;;;;;;4991736;28;20228;-57
2023/12/18 11:28:01;;;;;;;440.53;170.17;;;;;;;;;;4986084;28;20592;-57
2023/12/18 11:30:28;;;;;;;518.77;207.67;;;;;;;;;;4987805;28;20311;-56
2023/12/18 11:32:54;;;;;;;447.60;169.97;;;;;;;;;;4985030;28;20193;-57
2023/12/18 11:35:28;;;;;;;457.80;173.90;;;;;;;;;;4991036;28;20227;-56
2023/12/18 11:37:58;;;;;;;453.40;173.63;;;;;;;;;;4987485;28;21819;-56
2023/12/18 11:40:36;;;;;;;442.40;162.40;;;;;;;;;;4987825;28;20237;-56
2023/12/18 11:43:03;;;;;;;501.23;196.70;;;;;;;;;;4970911;28;20208;-57
2023/12/18 11:45:30;;;;;;;444.20;169.57;;;;;;;;;;4971352;28;20212;-57
2023/12/18 11:47:59;;;;;;;463.23;177.80;;;;;;;;;;4994640;28;20197;-56
2023/12/18 11:50:26;;;;;;;446.07;170.83;;;;;;;;;;4989035;28;20458;-56
2023/12/18 11:52:55;;;;;;;449.90;167.80;;;;;;;;;;4992175;28;20223;-56
2023/12/18 11:55:40;;;;;;;459.73;176.60;;;;;;;;;;4981124;28;20221;-56
2023/12/18 11:58:07;;;;;;;472.87;177.17;;;;;;;;;;4985914;28;20213;-57
2023/12/18 12:00:33;;;;;;;476.20;183.13;;;;;;;;;;4984656;28;20225;-56
2023/12/18 12:02:59;;;;;;;494.10;188.77;;;;;;;;;;4988941;28;20186;-56
2023/12/18 12:05:25;;;;;;;452.27;172.27;;;;;;;;;;4988014;28;20215;-55
2023/12/18 12:07:51;;;;;;;468.43;179.87;;;;;;;;;;4984830;28;20244;-56
2023/12/18 12:10:18;;;;;;;422.93;157.87;;;;;;;;;;4989874;28;20229;-56
2023/12/18 12:12:44;;;;;;;458.37;175.13;;;;;;;;;;4985095;28;20227;-56
2023/12/18 12:15:10;;;;;;;484.30;183.93;;;;;;;;;;4982366;28;20242;-55
2023/12/18 12:17:37;;;;;;;500.77;194.83;;;;;;;;;;4986131;28;20212;-56
2023/12/18 12:20:09;;;;;;;465.47;176.50;;;;;;;;;;4985869;28;20263;-55
2023/12/18 12:22:35;;;;;;;469.10;177.67;;;;;;;;;;4982821;28;20784;-56
2023/12/18 12:25:01;;;;;;;473.47;181.63;;;;;;;;;;4979717;28;20608;-55
2023/12/18 12:27:29;;;;;;;446.67;172.57;;;;;;;;;;4984515;28;20265;-55
2023/12/18 12:29:55;;;;;;;468.50;179.60;;;;;;;;;;4981165;28;20805;-55
2023/12/18 12:32:21;;;;;;;464.43;182.50;;;;;;;;;;4988229;28;20208;-55
2023/12/18 12:34:47;;;;;;;474.97;184.87;;;;;;;;;;4982217;28;20236;-55
2023/12/18 12:37:13;;;;;;;451.00;169.23;;;;;;;;;;4980372;28;20582;-55
2023/12/18 12:39:39;;;;;;;473.20;184.30;;;;;;;;;;4976930;28;20232;-55
2023/12/18 12:42:05;;;;;;;457.47;173.97;;;;;;;;;;4986809;28;20177;-55
2023/12/18 12:44:31;;;;;;;477.17;184.50;;;;;;;;;;4988063;28;20238;-55
2023/12/18 12:46:58;;;;;;;494.90;196.30;;;;;;;;;;4984151;28;20631;-55
2023/12/18 12:49:24;;;;;;;447.67;169.37;;;;;;;;;;4987826;28;20699;-55
2023/12/18 12:51:50;;;;;;;477.47;186.23;;;;;;;;;;4978804;28;20229;-56
2023/12/18 12:54:16;;;;;;;494.03;193.40;;;;;;;;;;4982507;28;20189;-55
2023/12/18 12:56:42;;;;;;;467.50;178.03;;;;;;;;;;4987019;28;20224;-56
2023/12/18 12:59:08;;;;;;;449.57;168.27;;;;;;;;;;4989565;28;20716;-56
2023/12/18 13:01:34;;;;;;;497.33;191.57;;;;;;;;;;4978973;28;20240;-56
2023/12/18 13:04:00;;;;;;;454.10;172.63;;;;;;;;;;4982025;28;20225;-55
2023/12/18 13:06:26;;;;;;;475.07;182.57;;;;;;;;;;4989108;28;20193;-55
2023/12/18 13:08:52;;;;;;;481.67;186.27;;;;;;;;;;4984744;28;20251;-55
2023/12/18 13:11:19;;;;;;;450.93;171.57;;;;;;;;;;4984878;28;20228;-55
2023/12/18 13:13:45;;;;;;;452.50;169.07;;;;;;;;;;4990250;28;20247;-55
2023/12/18 13:16:11;;;;;;;464.67;175.43;;;;;;;;;;4979299;28;20212;-56
2023/12/18 13:18:37;;;;;;;463.33;178.87;;;;;;;;;;4976093;28;20177;-56
2023/12/18 13:21:03;;;;;;;483.30;187.10;;;;;;;;;;4983606;28;21479;-56
2023/12/18 13:23:30;;;;;;;447.33;168.07;;;;;;;;;;4983662;28;20266;-56
2023/12/18 13:25:56;;;;;;;472.53;178.60;;;;;;;;;;4982349;28;20679;-56
2023/12/18 13:28:22;;;;;;;482.53;188.50;;;;;;;;;;4980339;28;20276;-56
2023/12/18 13:30:48;;;;;;;465.67;174.43;;;;;;;;;;4985756;28;20232;-56
2023/12/18 13:36:17;;;;;;;479.13;185.47;;;;;;;;;;4993403;28;20262;-55
2023/12/18 13:38:43;;;;;;;487.10;189.90;;;;;;;;;;4983739;28;20684;-56
2023/12/18 13:41:09;;;;;;;446.50;166.23;;;;;;;;;;4983405;28;20247;-56
2023/12/18 13:43:35;;;;;;;497.53;193.20;;;;;;;;;;4988964;28;20285;-56
2023/12/18 13:46:01;;;;;;;520.30;201.10;;;;;;;;;;4980077;28;20212;-55
2023/12/18 13:48:27;;;;;;;469.97;179.77;;;;;;;;;;4985153;28;20200;-56
2023/12/18 13:50:53;;;;;;;474.17;177.70;;;;;;;;;;4981571;28;20217;-56
2023/12/18 13:53:19;;;;;;;490.27;188.80;;;;;;;;;;4980364;28;20259;-56